sensor_id;sensor_type;location;lat;lon;timestamp;P1;durP1;ratioP1;P2;durP2;ratioP2
56824;SDS011;42705;50.326;18.772;2022-08-21T00:02:30;9.20;;;6.97;;
56824;SDS011;42705;50.326;18.772;2022-08-21T00:07:51;9.70;;;6.53;;
56824;SDS011;42705;50.326;18.772;2022-08-21T00:13:13;11.77;;;7.23;;
56824;SDS011;42705;50.326;18.772;2022-08-21T00:18:34;8.80;;;7.33;;
56824;SDS011;42705;50.326;18.772;2022-08-21T00:23:56;10.37;;;8.40;;
56824;SDS011;42705;50.326;18.772;2022-08-21T00:29:17;10.72;;;8.30;;
56824;SDS011;42705;50.326;18.772;2022-08-21T00:34:38;11.28;;;7.85;;
56824;SDS011;42705;50.326;18.772;2022-08-21T00:39:59;9.05;;;6.58;;
56824;SDS011;42705;50.326;18.772;2022-08-21T00:45:21;9.73;;;6.50;;
56824;SDS011;42705;50.326;18.772;2022-08-21T00:50:46;8.48;;;5.80;;
56824;SDS011;42705;50.326;18.772;2022-08-21T00:56:10;8.25;;;5.62;;
56824;SDS011;42705;50.326;18.772;2022-08-21T01:01:32;6.95;;;5.58;;
56824;SDS011;42705;50.326;18.772;2022-08-21T01:06:54;5.95;;;5.25;;
56824;SDS011;42705;50.326;18.772;2022-08-21T01:12:15;7.13;;;4.90;;
56824;SDS011;42705;50.326;18.772;2022-08-21T01:17:36;7.83;;;5.13;;
56824;SDS011;42705;50.326;18.772;2022-08-21T01:28:21;6.62;;;5.25;;
56824;SDS011;42705;50.326;18.772;2022-08-21T01:33:43;6.53;;;4.75;;
56824;SDS011;42705;50.326;18.772;2022-08-21T01:39:04;6.70;;;4.50;;
56824;SDS011;42705;50.326;18.772;2022-08-21T01:44:26;7.08;;;5.03;;
56824;SDS011;42705;50.326;18.772;2022-08-21T01:49:47;6.85;;;5.08;;
56824;SDS011;42705;50.326;18.772;2022-08-21T01:55:09;6.90;;;4.90;;
56824;SDS011;42705;50.326;18.772;2022-08-21T02:00:32;7.87;;;5.85;;
56824;SDS011;42705;50.326;18.772;2022-08-21T02:05:53;10.13;;;5.80;;
56824;SDS011;42705;50.326;18.772;2022-08-21T02:11:14;8.90;;;5.17;;
56824;SDS011;42705;50.326;18.772;2022-08-21T02:16:36;8.53;;;5.13;;
56824;SDS011;42705;50.326;18.772;2022-08-21T02:21:58;7.62;;;5.97;;
56824;SDS011;42705;50.326;18.772;2022-08-21T02:27:18;10.03;;;6.35;;
56824;SDS011;42705;50.326;18.772;2022-08-21T02:32:39;7.53;;;6.23;;
56824;SDS011;42705;50.326;18.772;2022-08-21T02:38:02;9.87;;;6.57;;
56824;SDS011;42705;50.326;18.772;2022-08-21T02:43:27;10.85;;;7.28;;
56824;SDS011;42705;50.326;18.772;2022-08-21T02:48:48;12.57;;;8.00;;
56824;SDS011;42705;50.326;18.772;2022-08-21T02:54:09;11.25;;;7.35;;
56824;SDS011;42705;50.326;18.772;2022-08-21T02:59:30;10.60;;;7.27;;
56824;SDS011;42705;50.326;18.772;2022-08-21T03:04:51;13.13;;;7.93;;
56824;SDS011;42705;50.326;18.772;2022-08-21T03:16:01;13.48;;;8.33;;
56824;SDS011;42705;50.326;18.772;2022-08-21T03:21:22;12.47;;;9.30;;
56824;SDS011;42705;50.326;18.772;2022-08-21T03:26:44;13.18;;;9.53;;
56824;SDS011;42705;50.326;18.772;2022-08-21T03:32:05;12.60;;;9.40;;
56824;SDS011;42705;50.326;18.772;2022-08-21T03:37:28;13.28;;;9.50;;
56824;SDS011;42705;50.326;18.772;2022-08-21T03:42:49;20.00;;;11.50;;
56824;SDS011;42705;50.326;18.772;2022-08-21T03:48:11;15.23;;;10.23;;
56824;SDS011;42705;50.326;18.772;2022-08-21T03:53:32;16.85;;;12.05;;
56824;SDS011;42705;50.326;18.772;2022-08-21T03:58:53;15.50;;;11.00;;
56824;SDS011;42705;50.326;18.772;2022-08-21T04:04:13;19.07;;;12.60;;
56824;SDS011;42705;50.326;18.772;2022-08-21T04:09:34;17.98;;;12.13;;
56824;SDS011;42705;50.326;18.772;2022-08-21T04:20:17;22.03;;;13.67;;
56824;SDS011;42705;50.326;18.772;2022-08-21T04:25:39;19.50;;;13.70;;
56824;SDS011;42705;50.326;18.772;2022-08-21T04:31:00;20.88;;;13.93;;
56824;SDS011;42705;50.326;18.772;2022-08-21T04:36:20;23.57;;;15.17;;
56824;SDS011;42705;50.326;18.772;2022-08-21T04:41:41;20.17;;;13.85;;
56824;SDS011;42705;50.326;18.772;2022-08-21T04:47:02;23.62;;;15.05;;
56824;SDS011;42705;50.326;18.772;2022-08-21T04:52:24;23.55;;;16.02;;
56824;SDS011;42705;50.326;18.772;2022-08-21T04:57:45;24.00;;;14.05;;
56824;SDS011;42705;50.326;18.772;2022-08-21T05:03:07;28.40;;;16.40;;
56824;SDS011;42705;50.326;18.772;2022-08-21T05:08:30;25.45;;;17.00;;
56824;SDS011;42705;50.326;18.772;2022-08-21T05:13:51;22.33;;;14.93;;
56824;SDS011;42705;50.326;18.772;2022-08-21T05:19:12;22.37;;;14.77;;
56824;SDS011;42705;50.326;18.772;2022-08-21T05:24:33;27.95;;;16.60;;
56824;SDS011;42705;50.326;18.772;2022-08-21T05:29:55;22.27;;;15.68;;
56824;SDS011;42705;50.326;18.772;2022-08-21T05:35:16;26.10;;;16.35;;
56824;SDS011;42705;50.326;18.772;2022-08-21T05:40:37;21.70;;;15.47;;
56824;SDS011;42705;50.326;18.772;2022-08-21T05:45:58;22.30;;;15.30;;
56824;SDS011;42705;50.326;18.772;2022-08-21T05:51:20;11.53;;;7.45;;
56824;SDS011;42705;50.326;18.772;2022-08-21T05:56:40;6.97;;;4.43;;
56824;SDS011;42705;50.326;18.772;2022-08-21T06:02:03;6.45;;;4.05;;
56824;SDS011;42705;50.326;18.772;2022-08-21T06:07:25;5.17;;;2.90;;
56824;SDS011;42705;50.326;18.772;2022-08-21T06:12:45;3.90;;;3.17;;
56824;SDS011;42705;50.326;18.772;2022-08-21T06:18:06;3.47;;;2.03;;
56824;SDS011;42705;50.326;18.772;2022-08-21T06:23:28;2.20;;;1.42;;
56824;SDS011;42705;50.326;18.772;2022-08-21T06:28:49;2.95;;;1.30;;
56824;SDS011;42705;50.326;18.772;2022-08-21T06:34:10;2.17;;;0.70;;
56824;SDS011;42705;50.326;18.772;2022-08-21T06:39:31;2.85;;;0.70;;
56824;SDS011;42705;50.326;18.772;2022-08-21T06:44:53;0.68;;;0.30;;
56824;SDS011;42705;50.326;18.772;2022-08-21T06:50:15;6.50;;;0.68;;
56824;SDS011;42705;50.326;18.772;2022-08-21T06:55:36;1.27;;;0.20;;
56824;SDS011;42705;50.326;18.772;2022-08-21T07:00:59;0.50;;;0.20;;
56824;SDS011;42705;50.326;18.772;2022-08-21T07:06:20;1.00;;;0.30;;
56824;SDS011;42705;50.326;18.772;2022-08-21T07:11:41;1.12;;;0.28;;
56824;SDS011;42705;50.326;18.772;2022-08-21T07:17:05;0.50;;;0.13;;
56824;SDS011;42705;50.326;18.772;2022-08-21T07:22:25;2.27;;;0.20;;
56824;SDS011;42705;50.326;18.772;2022-08-21T07:33:08;2.30;;;0.20;;
56824;SDS011;42705;50.326;18.772;2022-08-21T07:38:29;3.27;;;0.10;;
56824;SDS011;42705;50.326;18.772;2022-08-21T07:43:50;0.62;;;0.10;;
56824;SDS011;42705;50.326;18.772;2022-08-21T07:49:11;1.90;;;0.20;;
56824;SDS011;42705;50.326;18.772;2022-08-21T07:54:32;0.10;;;0.10;;
56824;SDS011;42705;50.326;18.772;2022-08-21T07:59:53;1.30;;;0.10;;
56824;SDS011;42705;50.326;18.772;2022-08-21T08:05:13;0.27;;;0.10;;
56824;SDS011;42705;50.326;18.772;2022-08-21T08:10:35;1.50;;;0.28;;
56824;SDS011;42705;50.326;18.772;2022-08-21T08:15:59;0.68;;;0.30;;
56824;SDS011;42705;50.326;18.772;2022-08-21T08:21:19;1.17;;;0.50;;
56824;SDS011;42705;50.326;18.772;2022-08-21T08:26:41;2.85;;;0.30;;
56824;SDS011;42705;50.326;18.772;2022-08-21T08:32:02;0.57;;;0.30;;
56824;SDS011;42705;50.326;18.772;2022-08-21T08:37:25;0.60;;;0.33;;
56824;SDS011;42705;50.326;18.772;2022-08-21T08:42:46;0.70;;;0.60;;
56824;SDS011;42705;50.326;18.772;2022-08-21T08:48:09;1.85;;;0.60;;
56824;SDS011;42705;50.326;18.772;2022-08-21T08:53:38;1.85;;;0.53;;
56824;SDS011;42705;50.326;18.772;2022-08-21T08:59:18;1.57;;;0.55;;
56824;SDS011;42705;50.326;18.772;2022-08-21T09:04:45;2.00;;;0.70;;
56824;SDS011;42705;50.326;18.772;2022-08-21T09:10:18;1.17;;;0.70;;
56824;SDS011;42705;50.326;18.772;2022-08-21T09:16:05;2.95;;;0.85;;
56824;SDS011;42705;50.326;18.772;2022-08-21T09:27:09;0.75;;;0.53;;
56824;SDS011;42705;50.326;18.772;2022-08-21T09:32:36;3.00;;;0.85;;
56824;SDS011;42705;50.326;18.772;2022-08-21T09:38:00;0.35;;;0.35;;
56824;SDS011;42705;50.326;18.772;2022-08-21T09:43:27;1.20;;;0.90;;
56824;SDS011;42705;50.326;18.772;2022-08-21T09:54:14;0.60;;;0.60;;
56824;SDS011;42705;50.326;18.772;2022-08-21T09:59:37;1.10;;;0.70;;
56824;SDS011;42705;50.326;18.772;2022-08-21T10:05:15;1.82;;;1.67;;
56824;SDS011;42705;50.326;18.772;2022-08-21T10:10:40;1.50;;;1.40;;
56824;SDS011;42705;50.326;18.772;2022-08-21T10:39:14;1.52;;;1.20;;
56824;SDS011;42705;50.326;18.772;2022-08-21T10:50:31;1.20;;;1.10;;
56824;SDS011;42705;50.326;18.772;2022-08-21T10:55:55;1.30;;;1.12;;
56824;SDS011;42705;50.326;18.772;2022-08-21T11:07:04;1.82;;;0.82;;
56824;SDS011;42705;50.326;18.772;2022-08-21T11:12:24;1.00;;;0.90;;
56824;SDS011;42705;50.326;18.772;2022-08-21T11:18:15;0.60;;;0.60;;
56824;SDS011;42705;50.326;18.772;2022-08-21T11:24:19;0.70;;;0.70;;
56824;SDS011;42705;50.326;18.772;2022-08-21T11:29:55;1.90;;;0.57;;
56824;SDS011;42705;50.326;18.772;2022-08-21T11:52:43;0.47;;;0.40;;
56824;SDS011;42705;50.326;18.772;2022-08-21T11:58:14;2.05;;;0.55;;
56824;SDS011;42705;50.326;18.772;2022-08-21T12:04:00;0.50;;;0.50;;
56824;SDS011;42705;50.326;18.772;2022-08-21T12:15:16;0.60;;;0.60;;
56824;SDS011;42705;50.326;18.772;2022-08-21T12:26:51;0.50;;;0.40;;
56824;SDS011;42705;50.326;18.772;2022-08-21T12:43:47;0.70;;;0.70;;
56824;SDS011;42705;50.326;18.772;2022-08-21T12:49:15;1.75;;;0.90;;
56824;SDS011;42705;50.326;18.772;2022-08-21T12:54:41;1.17;;;0.90;;
56824;SDS011;42705;50.326;18.772;2022-08-21T13:00:05;0.85;;;0.85;;
56824;SDS011;42705;50.326;18.772;2022-08-21T13:05:33;0.85;;;0.82;;
56824;SDS011;42705;50.326;18.772;2022-08-21T13:10:58;0.90;;;0.90;;
56824;SDS011;42705;50.326;18.772;2022-08-21T13:16:24;1.55;;;0.70;;
56824;SDS011;42705;50.326;18.772;2022-08-21T13:21:47;0.70;;;0.70;;
56824;SDS011;42705;50.326;18.772;2022-08-21T13:27:22;1.12;;;1.02;;
56824;SDS011;42705;50.326;18.772;2022-08-21T13:32:51;1.12;;;1.00;;
56824;SDS011;42705;50.326;18.772;2022-08-21T13:38:21;3.08;;;1.37;;
56824;SDS011;42705;50.326;18.772;2022-08-21T13:43:47;1.35;;;1.25;;
56824;SDS011;42705;50.326;18.772;2022-08-21T13:49:23;1.30;;;1.20;;
56824;SDS011;42705;50.326;18.772;2022-08-21T14:00:33;1.52;;;1.30;;
56824;SDS011;42705;50.326;18.772;2022-08-21T14:06:19;0.88;;;0.60;;
56824;SDS011;42705;50.326;18.772;2022-08-21T14:11:39;1.17;;;1.00;;
56824;SDS011;42705;50.326;18.772;2022-08-21T14:17:02;1.23;;;1.13;;
56824;SDS011;42705;50.326;18.772;2022-08-21T14:33:54;2.40;;;1.90;;
56824;SDS011;42705;50.326;18.772;2022-08-21T14:39:15;1.30;;;1.20;;
56824;SDS011;42705;50.326;18.772;2022-08-21T14:44:37;1.47;;;1.20;;
56824;SDS011;42705;50.326;18.772;2022-08-21T14:49:58;2.65;;;1.10;;
56824;SDS011;42705;50.326;18.772;2022-08-21T14:55:21;1.42;;;1.30;;
56824;SDS011;42705;50.326;18.772;2022-08-21T15:00:41;1.47;;;1.32;;
56824;SDS011;42705;50.326;18.772;2022-08-21T15:06:03;1.40;;;1.30;;
56824;SDS011;42705;50.326;18.772;2022-08-21T15:11:27;1.40;;;1.30;;
56824;SDS011;42705;50.326;18.772;2022-08-21T15:16:48;1.62;;;1.40;;
56824;SDS011;42705;50.326;18.772;2022-08-21T15:22:11;2.42;;;2.20;;
56824;SDS011;42705;50.326;18.772;2022-08-21T15:27:32;4.10;;;1.47;;
56824;SDS011;42705;50.326;18.772;2022-08-21T15:32:53;2.50;;;1.87;;
56824;SDS011;42705;50.326;18.772;2022-08-21T15:38:15;2.33;;;2.02;;
56824;SDS011;42705;50.326;18.772;2022-08-21T15:43:45;5.08;;;1.90;;
56824;SDS011;42705;50.326;18.772;2022-08-21T15:49:11;2.50;;;1.98;;
56824;SDS011;42705;50.326;18.772;2022-08-21T15:54:32;2.83;;;2.22;;
56824;SDS011;42705;50.326;18.772;2022-08-21T15:59:53;2.47;;;2.27;;
56824;SDS011;42705;50.326;18.772;2022-08-21T16:05:18;5.62;;;2.60;;
56824;SDS011;42705;50.326;18.772;2022-08-21T16:10:41;5.58;;;2.80;;
56824;SDS011;42705;50.326;18.772;2022-08-21T16:16:02;3.35;;;2.60;;
56824;SDS011;42705;50.326;18.772;2022-08-21T16:21:25;3.77;;;3.20;;
56824;SDS011;42705;50.326;18.772;2022-08-21T16:26:47;4.42;;;3.15;;
56824;SDS011;42705;50.326;18.772;2022-08-21T16:32:12;4.62;;;3.27;;
56824;SDS011;42705;50.326;18.772;2022-08-21T16:37:36;4.53;;;3.00;;
56824;SDS011;42705;50.326;18.772;2022-08-21T16:42:57;5.72;;;3.22;;
56824;SDS011;42705;50.326;18.772;2022-08-21T16:48:18;3.95;;;2.60;;
56824;SDS011;42705;50.326;18.772;2022-08-21T16:53:39;4.20;;;2.80;;
56824;SDS011;42705;50.326;18.772;2022-08-21T16:59:00;4.67;;;3.23;;
56824;SDS011;42705;50.326;18.772;2022-08-21T17:04:21;3.17;;;2.77;;
56824;SDS011;42705;50.326;18.772;2022-08-21T17:09:44;2.80;;;2.42;;
56824;SDS011;42705;50.326;18.772;2022-08-21T17:15:07;3.52;;;2.40;;
56824;SDS011;42705;50.326;18.772;2022-08-21T17:20:32;1.50;;;1.30;;
56824;SDS011;42705;50.326;18.772;2022-08-21T17:25:53;2.77;;;1.97;;
56824;SDS011;42705;50.326;18.772;2022-08-21T17:36:37;1.37;;;1.27;;
56824;SDS011;42705;50.326;18.772;2022-08-21T17:41:58;1.75;;;1.22;;
56824;SDS011;42705;50.326;18.772;2022-08-21T17:47:30;0.72;;;0.72;;
56824;SDS011;42705;50.326;18.772;2022-08-21T17:52:52;1.32;;;0.68;;
56824;SDS011;42705;50.326;18.772;2022-08-21T17:58:13;1.20;;;0.55;;
56824;SDS011;42705;50.326;18.772;2022-08-21T18:03:34;0.37;;;0.30;;
56824;SDS011;42705;50.326;18.772;2022-08-21T18:08:57;1.32;;;0.45;;
56824;SDS011;42705;50.326;18.772;2022-08-21T18:14:19;1.72;;;0.40;;
56824;SDS011;42705;50.326;18.772;2022-08-21T18:19:44;0.50;;;0.45;;
56824;SDS011;42705;50.326;18.772;2022-08-21T18:25:05;0.40;;;0.30;;
56824;SDS011;42705;50.326;18.772;2022-08-21T18:30:29;0.98;;;0.45;;
56824;SDS011;42705;50.326;18.772;2022-08-21T18:35:50;1.07;;;0.62;;
56824;SDS011;42705;50.326;18.772;2022-08-21T18:41:11;1.05;;;0.60;;
56824;SDS011;42705;50.326;18.772;2022-08-21T18:46:32;0.90;;;0.80;;
56824;SDS011;42705;50.326;18.772;2022-08-21T18:51:53;3.72;;;0.60;;
56824;SDS011;42705;50.326;18.772;2022-08-21T18:57:15;1.03;;;0.53;;
56824;SDS011;42705;50.326;18.772;2022-08-21T19:02:36;0.60;;;0.60;;
56824;SDS011;42705;50.326;18.772;2022-08-21T19:07:58;1.42;;;0.55;;
56824;SDS011;42705;50.326;18.772;2022-08-21T19:13:19;1.15;;;0.72;;
56824;SDS011;42705;50.326;18.772;2022-08-21T19:18:41;0.95;;;0.90;;
56824;SDS011;42705;50.326;18.772;2022-08-21T19:24:02;1.05;;;0.98;;
56824;SDS011;42705;50.326;18.772;2022-08-21T19:29:26;1.30;;;1.20;;
56824;SDS011;42705;50.326;18.772;2022-08-21T19:34:47;2.27;;;1.37;;
56824;SDS011;42705;50.326;18.772;2022-08-21T19:40:09;2.62;;;1.27;;
56824;SDS011;42705;50.326;18.772;2022-08-21T19:45:33;1.85;;;0.70;;
56824;SDS011;42705;50.326;18.772;2022-08-21T19:50:58;0.60;;;0.60;;
56824;SDS011;42705;50.326;18.772;2022-08-21T19:56:20;0.75;;;0.50;;
56824;SDS011;42705;50.326;18.772;2022-08-21T20:01:45;0.55;;;0.50;;
56824;SDS011;42705;50.326;18.772;2022-08-21T20:07:07;0.60;;;0.60;;
56824;SDS011;42705;50.326;18.772;2022-08-21T20:12:28;1.02;;;0.78;;
56824;SDS011;42705;50.326;18.772;2022-08-21T20:17:49;1.02;;;0.60;;
56824;SDS011;42705;50.326;18.772;2022-08-21T20:23:12;1.47;;;0.90;;
56824;SDS011;42705;50.326;18.772;2022-08-21T20:28:35;2.35;;;0.70;;
56824;SDS011;42705;50.326;18.772;2022-08-21T20:33:57;2.35;;;0.70;;
56824;SDS011;42705;50.326;18.772;2022-08-21T20:39:18;1.50;;;0.70;;
56824;SDS011;42705;50.326;18.772;2022-08-21T20:44:39;0.68;;;0.68;;
56824;SDS011;42705;50.326;18.772;2022-08-21T20:50:02;0.65;;;0.65;;
56824;SDS011;42705;50.326;18.772;2022-08-21T20:55:27;0.62;;;0.50;;
56824;SDS011;42705;50.326;18.772;2022-08-21T21:00:50;0.80;;;0.80;;
56824;SDS011;42705;50.326;18.772;2022-08-21T21:06:15;1.70;;;0.60;;
56824;SDS011;42705;50.326;18.772;2022-08-21T21:18:07;0.37;;;0.37;;
56824;SDS011;42705;50.326;18.772;2022-08-21T21:29:00;1.12;;;0.30;;
56824;SDS011;42705;50.326;18.772;2022-08-21T21:34:44;1.65;;;0.40;;
56824;SDS011;42705;50.326;18.772;2022-08-21T21:40:25;1.10;;;0.30;;
56824;SDS011;42705;50.326;18.772;2022-08-21T22:03:26;0.35;;;0.17;;
56824;SDS011;42705;50.326;18.772;2022-08-21T22:08:55;2.15;;;0.30;;
56824;SDS011;42705;50.326;18.772;2022-08-21T22:14:31;0.23;;;0.13;;
56824;SDS011;42705;50.326;18.772;2022-08-21T22:19:56;0.50;;;0.10;;
56824;SDS011;42705;50.326;18.772;2022-08-21T22:25:29;0.57;;;0.20;;
56824;SDS011;42705;50.326;18.772;2022-08-21T22:36:44;0.35;;;0.08;;
56824;SDS011;42705;50.326;18.772;2022-08-21T22:42:22;0.37;;;0.10;;
56824;SDS011;42705;50.326;18.772;2022-08-21T22:47:45;0.42;;;0.10;;
56824;SDS011;42705;50.326;18.772;2022-08-21T22:53:08;0.17;;;0.00;;
56824;SDS011;42705;50.326;18.772;2022-08-21T22:58:34;0.10;;;0.10;;
56824;SDS011;42705;50.326;18.772;2022-08-21T23:04:21;0.10;;;0.10;;
56824;SDS011;42705;50.326;18.772;2022-08-21T23:09:36;0.53;;;0.10;;
56824;SDS011;42705;50.326;18.772;2022-08-21T23:15:07;0.42;;;0.10;;
56824;SDS011;42705;50.326;18.772;2022-08-21T23:37:29;0.28;;;0.10;;
56824;SDS011;42705;50.326;18.772;2022-08-21T23:49:12;1.02;;;0.20;;
